Kellys Korner, Washington
Current Conditions -  °F | °C
As of 1:54 PM on Thursday 27 Nov 2014 (Local Time) from KOLM Reporting Station
Light Rain Light Rain  
Wind Chill: 54°   Ceiling: 900
Heat Index: 54°   Visibility: 6mi
Dew Point: 51°   Wind: 15mph
Humidity: 90%   Direction: 190°S
Pressure: 29.83"   Gusts: NA
Location:  46.9679°N, 122.834°W
Report Text: KOLM 272154Z 19013KT 6SM -RA BR BKN009 OVC018 12/11 A2983 RMK AO2 RAE44B53 SLP101 P0002 T01220106
Loading
Personal Weather Stations






























Interactive Weather Map New forecast layout! Learn more

10-Day Weather Forecast

Advertisements
Track Severe Weather on mobile